AGW weather

Agnew Airport
Agnew, Queensland, Australia

Public forecast

Using degrees Celsius for public forecast. Weather courtesy of forecast.io.

Closest aviation weather report (METAR) to Agnew Airport

Closest report is Weipa Airport, 34.6 nm (64.1 km) SSW. Retrieved 2020/06/05 22:00 UTC (35 minutes ago):

YBWP 052200Z AUTO 11010KT 9999 // SCT026 BKN099 OVC125 25/20 Q1012

Closest aviation forecast (TAF) to Agnew Airport

Forecast is more than 12 hours old.

Closest forecast is Horn Island Airport, 94.0 nm (174.1 km) N. Retrieved 2020-06-05 00:00 UTC (23 hours ago):

TAF YHID 042317Z 0500/0600 12020KT 9999 SCT020 FM051200 12020KT 9999 -SHRA SCT015 INTER 0512/0600 2000 SHRA BKN010